createdAt,value
2019-05-05T00:04:28.833Z,61.70
2019-05-05T00:09:30.725Z,61.80
2019-05-05T00:14:45.660Z,61.90
2019-05-05T00:19:48.509Z,62.70
2019-05-05T00:24:49.833Z,61.90
2019-05-05T00:29:54.550Z,62.10
2019-05-05T00:34:56.115Z,62.20
2019-05-05T00:39:57.570Z,62.20
2019-05-05T00:44:59.098Z,62.20
2019-05-05T00:50:01.056Z,62.40
2019-05-05T00:55:06.586Z,62.40
2019-05-05T01:00:28.635Z,62.70
2019-05-05T01:05:34.397Z,62.50
2019-05-05T01:10:38.247Z,62.50
2019-05-05T01:15:41.880Z,62.50
2019-05-05T01:20:49.348Z,62.50
2019-05-05T01:25:50.676Z,62.10
2019-05-05T01:30:54.990Z,62.70
2019-05-05T01:35:57.785Z,63.00
2019-05-05T01:41:05.131Z,63.20
2019-05-05T01:46:07.274Z,62.80
2019-05-05T01:51:10.718Z,62.50
2019-05-05T01:56:16.011Z,62.50
2019-05-05T02:01:19.588Z,62.50
2019-05-05T02:06:24.861Z,62.60
2019-05-05T02:11:26.561Z,62.40
2019-05-05T02:16:28.002Z,62.80
2019-05-05T02:21:35.494Z,62.70
2019-05-05T02:26:37.085Z,62.80
2019-05-05T02:31:40.462Z,63.00
2019-05-05T02:36:42.326Z,63.30
2019-05-05T02:41:47.237Z,63.30
2019-05-05T02:47:04.748Z,63.40
2019-05-05T02:52:08.016Z,63.50
2019-05-05T02:57:13.381Z,63.50
2019-05-05T03:02:16.954Z,63.50
2019-05-05T03:07:25.132Z,63.80
2019-05-05T03:12:35.568Z,63.80
2019-05-05T03:17:37.677Z,63.80
2019-05-05T03:22:45.002Z,63.90
2019-05-05T03:27:47.700Z,64.20
2019-05-05T03:32:49.246Z,64.20
2019-05-05T03:37:50.792Z,63.80
2019-05-05T03:42:57.081Z,64.00
2019-05-05T03:47:58.823Z,64.10
2019-05-05T03:53:02.237Z,64.70
2019-05-05T03:58:04.198Z,65.00
2019-05-05T04:03:08.759Z,64.90
2019-05-05T04:08:10.317Z,64.90
2019-05-05T04:13:13.906Z,64.80
2019-05-05T04:18:20.736Z,64.80
2019-05-05T04:23:22.048Z,64.80
2019-05-05T04:28:24.553Z,64.70
2019-05-05T04:33:26.012Z,64.80
2019-05-05T04:38:28.297Z,64.60
2019-05-05T04:43:29.835Z,64.80
2019-05-05T04:48:34.544Z,64.90
2019-05-05T04:53:38.110Z,64.70
2019-05-05T04:58:40.756Z,64.70
2019-05-05T05:03:50.968Z,64.80
2019-05-05T05:09:06.799Z,64.80
2019-05-05T05:14:09.532Z,64.70
2019-05-05T05:19:13.972Z,64.50
2019-05-05T05:24:15.416Z,64.30
2019-05-05T05:29:16.926Z,64.30
2019-05-05T05:34:18.497Z,64.30
2019-05-05T05:39:45.593Z,64.50
2019-05-05T05:45:08.780Z,64.60
2019-05-05T05:50:16.251Z,64.70
2019-05-05T05:55:17.741Z,64.80
2019-05-05T06:00:19.256Z,65.00
2019-05-05T06:05:20.654Z,65.20
2019-05-05T06:10:26.650Z,65.30
2019-05-05T06:15:38.821Z,65.30
2019-05-05T06:20:42.027Z,65.20
2019-05-05T06:25:45.592Z,65.10
2019-05-05T06:30:49.211Z,65.00
2019-05-05T06:35:50.710Z,65.00
2019-05-05T06:40:54.049Z,65.00
2019-05-05T06:46:03.962Z,65.00
2019-05-05T06:51:05.653Z,64.90
2019-05-05T06:56:07.004Z,64.50
2019-05-05T07:01:10.759Z,64.10
2019-05-05T07:06:20.417Z,64.10
2019-05-05T07:11:24.966Z,64.00
2019-05-05T07:16:26.414Z,63.90
2019-05-05T07:21:27.992Z,64.00
2019-05-05T07:26:30.593Z,64.60
2019-05-05T07:31:35.131Z,64.80
2019-05-05T07:36:44.704Z,64.70
2019-05-05T07:41:48.215Z,64.60
2019-05-05T07:46:49.661Z,64.30
2019-05-05T07:51:56.854Z,64.00
2019-05-05T07:56:58.457Z,63.50
2019-05-05T08:02:00.138Z,63.30
2019-05-05T08:07:03.950Z,62.80
2019-05-05T08:12:05.030Z,62.20
2019-05-05T08:17:17.451Z,62.70
2019-05-05T08:22:19.989Z,62.70
2019-05-05T08:27:44.663Z,62.50
2019-05-05T08:32:49.057Z,62.40
2019-05-05T08:37:54.195Z,63.00
2019-05-05T08:43:01.949Z,62.80
2019-05-05T08:48:05.239Z,62.80
2019-05-05T08:53:08.561Z,61.80
2019-05-05T08:58:10.400Z,59.80
2019-05-05T09:03:13.856Z,60.00
2019-05-05T09:08:17.436Z,62.10
2019-05-05T09:13:24.776Z,63.50
2019-05-05T09:18:26.494Z,66.80
2019-05-05T09:23:30.862Z,67.00
2019-05-05T09:28:54.568Z,66.20
2019-05-05T09:33:56.125Z,65.40
2019-05-05T09:38:57.696Z,64.50
2019-05-05T09:43:59.029Z,63.20
2019-05-05T09:49:00.532Z,61.80
2019-05-05T09:54:13.812Z,59.90
2019-05-05T09:59:05.735Z,58.70
2019-05-05T10:04:14.019Z,57.60
2019-05-05T10:09:15.343Z,58.20
2019-05-05T10:14:16.955Z,59.50
2019-05-05T10:19:19.492Z,59.50
2019-05-05T10:24:31.130Z,59.10
2019-05-05T10:29:32.069Z,58.80
2019-05-05T10:34:33.630Z,58.70
2019-05-05T10:39:36.894Z,57.70
2019-05-05T10:44:39.468Z,57.00
2019-05-05T10:49:44.003Z,58.00
2019-05-05T10:54:45.497Z,59.90
2019-05-05T10:59:49.125Z,60.10
2019-05-05T11:04:50.651Z,58.60
2019-05-05T11:09:52.381Z,59.00
2019-05-05T11:14:54.553Z,62.40
2019-05-05T11:20:05.314Z,63.60
2019-05-05T11:25:07.145Z,62.70
2019-05-05T11:30:24.858Z,61.20
2019-05-05T11:35:27.113Z,60.30
2019-05-05T11:40:31.474Z,58.60
2019-05-05T11:45:36.169Z,58.00
2019-05-05T11:50:37.637Z,57.40
2019-05-05T11:55:39.090Z,57.60
2019-05-05T12:00:40.713Z,57.50
2019-05-05T12:05:44.243Z,56.80
2019-05-05T12:10:59.860Z,56.30
2019-05-05T12:16:04.556Z,56.00
2019-05-05T12:21:06.178Z,55.30
2019-05-05T12:26:17.501Z,54.10
2019-05-05T12:31:24.795Z,54.80
2019-05-05T12:36:34.194Z,56.70
2019-05-05T12:41:35.961Z,58.30
2019-05-05T12:46:54.371Z,59.50
2019-05-05T12:51:55.704Z,59.60
2019-05-05T12:56:59.206Z,59.10
2019-05-05T13:02:06.330Z,58.70
2019-05-05T13:07:14.650Z,57.80
2019-05-05T13:12:19.187Z,56.80
2019-05-05T13:17:20.811Z,55.80
2019-05-05T13:22:33.765Z,55.10
2019-05-05T13:27:44.527Z,54.90
2019-05-05T13:32:48.171Z,54.40
2019-05-05T13:37:55.590Z,55.00
2019-05-05T13:42:57.166Z,54.80
2019-05-05T13:47:58.887Z,54.60
2019-05-05T13:53:00.252Z,54.10
2019-05-05T13:58:03.824Z,54.60
2019-05-05T14:03:05.439Z,55.30
2019-05-05T14:08:14.686Z,54.60
2019-05-05T14:13:16.278Z,53.60
2019-05-05T14:18:17.744Z,53.90
2019-05-05T14:23:26.814Z,54.10
2019-05-05T14:28:30.212Z,53.00
2019-05-05T14:33:43.503Z,53.40
2019-05-05T14:38:49.448Z,55.20
2019-05-05T14:43:54.636Z,55.50
2019-05-05T14:48:57.950Z,55.20
2019-05-05T14:54:00.335Z,55.30
2019-05-05T14:59:28.675Z,53.90
2019-05-05T15:04:34.467Z,53.00
2019-05-05T15:09:40.114Z,52.90
2019-05-05T15:14:44.666Z,52.80
2019-05-05T15:19:49.466Z,52.40
2019-05-05T15:24:51.053Z,52.10
2019-05-05T15:29:54.338Z,51.60
2019-05-05T15:35:05.850Z,51.90
2019-05-05T15:40:10.132Z,51.30
2019-05-05T15:45:14.199Z,52.50
2019-05-05T15:50:15.725Z,52.20
2019-05-05T15:55:17.542Z,51.80
2019-05-05T16:00:21.475Z,51.40
2019-05-05T16:05:24.305Z,51.00
2019-05-05T16:10:26.070Z,51.80
2019-05-05T16:15:35.237Z,51.90
2019-05-05T16:20:38.808Z,52.90
2019-05-05T16:25:41.732Z,52.60
2019-05-05T16:30:49.310Z,52.10
2019-05-05T16:35:50.821Z,52.80
2019-05-05T16:40:53.911Z,53.40
2019-05-05T16:45:57.695Z,53.70
2019-05-05T16:50:59.014Z,53.40
2019-05-05T16:56:04.587Z,53.40
2019-05-05T17:01:11.112Z,53.60
2019-05-05T17:06:17.846Z,53.80
2019-05-05T17:11:19.511Z,53.70
2019-05-05T17:16:35.039Z,53.70
2019-05-05T17:21:55.318Z,53.80
2019-05-05T17:26:59.966Z,53.70
2019-05-05T17:32:08.347Z,53.30
2019-05-05T17:37:09.799Z,52.70
2019-05-05T17:42:14.188Z,52.10
2019-05-05T17:47:18.670Z,52.10
2019-05-05T17:52:22.011Z,52.30
2019-05-05T17:57:23.699Z,52.60
2019-05-05T18:02:27.361Z,52.90
2019-05-05T18:07:34.569Z,53.20
2019-05-05T18:12:41.159Z,53.50
2019-05-05T18:17:48.799Z,53.60
2019-05-05T18:22:50.259Z,53.60
2019-05-05T18:27:51.686Z,53.70
2019-05-05T18:32:53.484Z,53.70
2019-05-05T18:37:56.181Z,53.70
2019-05-05T18:42:59.560Z,53.80
2019-05-05T18:48:04.438Z,53.80
2019-05-05T18:53:09.308Z,53.90
2019-05-05T18:58:11.034Z,54.10
2019-05-05T19:03:20.857Z,54.40
2019-05-05T19:08:27.497Z,54.40
2019-05-05T19:13:34.844Z,54.50
2019-05-05T19:18:39.270Z,55.20
2019-05-05T19:23:41.714Z,54.90
2019-05-05T19:28:49.921Z,55.10
2019-05-05T19:33:50.782Z,55.20
2019-05-05T19:38:55.301Z,55.30
2019-05-05T19:43:57.725Z,55.40
2019-05-05T19:49:15.580Z,55.50
2019-05-05T19:54:16.918Z,55.50
2019-05-05T19:59:19.314Z,55.50
2019-05-05T20:04:20.760Z,55.70
2019-05-05T20:09:24.615Z,55.80
2019-05-05T20:14:30.520Z,56.00
2019-05-05T20:19:34.673Z,56.10
2019-05-05T20:24:39.366Z,56.20
2019-05-05T20:29:46.590Z,56.20
2019-05-05T20:34:58.293Z,56.30
2019-05-05T20:40:01.053Z,56.30
2019-05-05T20:45:07.186Z,56.40
2019-05-05T20:50:16.447Z,56.40
2019-05-05T20:55:17.941Z,56.60
2019-05-05T21:00:25.305Z,56.60
2019-05-05T21:05:26.645Z,56.80
2019-05-05T21:10:28.170Z,56.90
2019-05-05T21:15:29.623Z,57.00
2019-05-05T21:20:31.064Z,57.00
2019-05-05T21:25:35.367Z,57.10
2019-05-05T21:30:36.828Z,57.10
2019-05-05T21:35:41.211Z,57.10
2019-05-05T21:40:45.887Z,57.20
2019-05-05T21:45:56.258Z,57.10
2019-05-05T21:51:14.940Z,57.20
2019-05-05T21:56:34.700Z,57.20
2019-05-05T22:01:40.446Z,57.30
2019-05-05T22:07:09.000Z,57.40
2019-05-05T22:12:13.522Z,57.40
2019-05-05T22:17:14.998Z,57.40
2019-05-05T22:22:24.240Z,57.40
2019-05-05T22:27:25.630Z,57.40
2019-05-05T22:32:34.413Z,57.50
2019-05-05T22:37:38.418Z,57.30
2019-05-05T22:42:47.865Z,57.20
2019-05-05T22:47:49.214Z,57.20
2019-05-05T22:52:56.386Z,57.40
2019-05-05T22:57:57.921Z,57.40
2019-05-05T23:03:19.401Z,57.60
2019-05-05T23:08:20.873Z,57.50
2019-05-05T23:13:25.382Z,57.60
2019-05-05T23:18:28.396Z,57.80
2019-05-05T23:23:40.601Z,57.90
2019-05-05T23:29:04.139Z,58.00
2019-05-05T23:34:07.946Z,58.10
2019-05-05T23:39:10.511Z,58.20
2019-05-05T23:44:11.950Z,58.30
2019-05-05T23:49:16.543Z,58.40
2019-05-05T23:54:17.912Z,58.40
2019-05-05T23:59:19.308Z,58.50
